Time;durP1;ratioP1;P1;durP2;ratioP2;P2;SDS_P1;SDS_P2;PMS_P1;PMS_P2;Temp;Humidity;BMP_temperature;BMP_pressure;BME280_temperature;BME280_humidity;BME280_pressure;Samples;Min_cycle;Max_cycle;Signal;HPM_P1;HPM_P2
2022/07/08 00:01:00;;;;;;;;;;;;;;;-149.78;100.00;50121.38;5000651;28;19921;-70
2022/07/08 00:03:25;;;;;;;;;;;;;;;-149.78;100.00;50154.63;4983479;28;19922;-70
2022/07/08 00:05:51;;;;;;;;;;;;;;;-149.78;100.00;50123.34;4981872;28;20001;-70
2022/07/08 00:08:16;;;;;;;;;;;;;;;-149.78;100.00;50154.63;4971819;28;19929;-70
2022/07/08 00:10:42;;;;;;;;;;;;;;;-149.78;100.00;50178.09;4986052;28;19936;-70
2022/07/08 00:13:07;;;;;;;;;;;;;;;-149.78;100.00;50117.47;4976314;28;19922;-70
2022/07/08 00:15:33;;;;;;;;;;;;;;;-149.78;100.00;50176.13;4975479;28;19928;-70
2022/07/08 00:17:58;;;;;;;;;;;;;;;-149.78;100.00;50148.75;4976471;28;20057;-70
2022/07/08 00:20:23;;;;;;;;;;;;;;;-149.78;100.00;50117.47;4978621;28;19923;-70
2022/07/08 00:22:49;;;;;;;;;;;;;;;-149.78;100.00;50127.25;4975936;28;20366;-70
2022/07/08 00:25:14;;;;;;;;;;;;;;;-149.78;100.00;50162.44;4981506;28;19933;-70
2022/07/08 00:27:39;;;;;;;;;;;;;;;-149.78;100.00;50131.16;4976993;28;19930;-70
2022/07/08 00:30:06;;;;;;;;;;;;;;;-149.78;100.00;50158.53;4950037;28;19981;-70
2022/07/08 00:32:31;;;;;;;;;;;;;;;-149.78;100.00;50150.72;4967536;28;19922;-70
2022/07/08 00:34:57;;;;;;;;;;;;;;;-149.78;100.00;50135.06;4958670;28;19926;-70
2022/07/08 00:37:22;;;;;;;;;;;;;;;-149.78;100.00;50129.19;4967711;28;19918;-71
2022/07/08 00:39:48;;;;;;;;;;;;;;;-149.78;100.00;50127.25;4962728;28;20422;-70
2022/07/08 00:42:14;;;;;;;;;;;;;;;-149.78;100.00;50129.19;4965409;28;19933;-70
2022/07/08 00:44:39;;;;;;;;;;;;;;;-149.78;100.00;50105.72;4966315;28;19918;-70
2022/07/08 00:47:05;;;;;;;;;;;;;;;-149.78;100.00;50138.97;4966384;28;20020;-70
2022/07/08 00:49:30;;;;;;;;;;;;;;;-149.78;100.00;50170.25;4965072;28;19969;-70
2022/07/08 00:51:56;;;;;;;;;;;;;;;-149.78;100.00;50142.88;4965157;28;20036;-70
2022/07/08 00:54:22;;;;;;;;;;;;;;;-149.78;100.00;50138.97;4966533;28;20302;-70
2022/07/08 00:56:47;;;;;;;;;;;;;;;-149.78;100.00;50107.69;4966653;28;20389;-70
2022/07/08 00:59:13;;;;;;;;;;;;;;;-149.78;100.00;50146.81;4948050;28;19933;-70
2022/07/08 01:01:39;;;;;;;;;;;;;;;-149.78;100.00;50127.25;4964715;28;19981;-70
2022/07/08 01:04:05;;;;;;;;;;;;;;;-149.78;100.00;50135.06;4964828;28;19918;-70
2022/07/08 01:06:31;;;;;;;;;;;;;;;-149.78;100.00;50146.81;4949724;28;19991;-70
2022/07/08 01:08:58;;;;;;;;;;;;;;;-149.78;100.00;50162.44;4942550;28;19930;-70
2022/07/08 01:11:25;;;;;;;;;;;;;;;-149.78;100.00;50138.97;4962696;28;20717;-70
2022/07/08 01:13:51;;;;;;;;;;;;;;;-149.78;100.00;50166.34;4970821;28;20040;-70
2022/07/08 01:16:16;;;;;;;;;;;;;;;-149.78;100.00;50135.06;4973195;28;20332;-70
2022/07/08 01:18:42;;;;;;;;;;;;;;;-149.78;100.00;50150.72;4973305;28;19930;-70
2022/07/08 01:21:08;;;;;;;;;;;;;;;-149.78;100.00;50142.88;4973060;28;19934;-70
2022/07/08 01:23:33;;;;;;;;;;;;;;;-149.78;100.00;50189.81;4972001;28;20128;-70
2022/07/08 01:26:00;;;;;;;;;;;;;;;-149.78;100.00;50166.34;4971088;28;19928;-70
2022/07/08 01:28:25;;;;;;;;;;;;;;;-149.78;100.00;50140.94;4972494;28;19929;-70
2022/07/08 01:30:50;;;;;;;;;;;;;;;-149.78;100.00;50127.25;4954785;28;20325;-70
2022/07/08 01:33:16;;;;;;;;;;;;;;;-149.78;100.00;50162.44;4977734;28;20467;-70
2022/07/08 01:35:42;;;;;;;;;;;;;;;-149.78;100.00;50142.88;4975966;28;19937;-70
2022/07/08 01:38:07;;;;;;;;;;;;;;;-149.78;100.00;50174.19;4972197;28;19926;-70
2022/07/08 01:40:33;;;;;;;;;;;;;;;-149.78;100.00;50162.44;4973684;28;20405;-70
2022/07/08 01:42:58;;;;;;;;;;;;;;;-149.78;100.00;50189.81;4972957;28;20028;-70
2022/07/08 01:45:23;;;;;;;;;;;;;;;-149.78;100.00;50180.03;4971637;28;20012;-70
2022/07/08 01:47:49;;;;;;;;;;;;;;;-149.78;100.00;50142.88;4972392;28;19925;-70
2022/07/08 01:50:14;;;;;;;;;;;;;;;-149.78;100.00;50158.53;4970804;28;19930;-70
2022/07/08 01:52:40;;;;;;;;;;;;;;;-149.78;100.00;50131.16;4972924;28;19961;-70
2022/07/08 01:55:06;;;;;;;;;;;;;;;-149.78;100.00;50142.88;4972637;28;20016;-70
2022/07/08 01:57:34;;;;;;;;;;;;;;;-149.78;100.00;50150.72;4973895;28;20024;-70
2022/07/08 01:59:59;;;;;;;;;;;;;;;-149.78;100.00;50135.06;4970903;28;19925;-70
2022/07/08 02:02:24;;;;;;;;;;;;;;;-149.78;100.00;50127.25;4973205;28;19937;-70
2022/07/08 02:04:50;;;;;;;;;;;;;;;-149.78;100.00;50172.22;4956127;28;19921;-69
2022/07/08 02:07:16;;;;;;;;;;;;;;;-149.78;100.00;50170.25;4972827;28;20246;-71
2022/07/08 02:09:41;;;;;;;;;;;;;;;-149.78;100.00;50138.97;4972266;28;19933;-71
2022/07/08 02:12:19;;;;;;;;;;;;;;;-149.78;100.00;50164.41;4954332;28;20545;-70
2022/07/08 02:14:49;;;;;;;;;;;;;;;-149.78;100.00;50131.16;4969802;28;19925;-70
2022/07/08 02:17:15;;;;;;;;;;;;;;;-149.78;100.00;50137.03;4971793;28;19930;-70
2022/07/08 02:19:41;;;;;;;;;;;;;;;-149.78;100.00;50150.72;4972492;28;19926;-70
2022/07/08 02:22:07;;;;;;;;;;;;;;;-149.78;100.00;50174.19;4972575;28;20301;-70
2022/07/08 02:24:33;;;;;;;;;;;;;;;-149.78;100.00;50123.34;4972925;28;19929;-70
2022/07/08 02:26:58;;;;;;;;;;;;;;;-149.78;100.00;50170.25;4957032;28;19933;-70
2022/07/08 02:29:24;;;;;;;;;;;;;;;-149.78;100.00;50170.25;4971549;28;19941;-70
2022/07/08 02:31:49;;;;;;;;;;;;;;;-149.78;100.00;50142.88;4972633;28;19936;-70
2022/07/08 02:34:15;;;;;;;;;;;;;;;-149.78;100.00;50166.34;4972083;28;19925;-70
2022/07/08 02:36:40;;;;;;;;;;;;;;;-149.78;100.00;50174.19;4972347;28;20392;-70
2022/07/08 02:39:05;;;;;;;;;;;;;;;-149.78;100.00;50166.34;4955319;28;19930;-70
2022/07/08 02:41:31;;;;;;;;;;;;;;;-149.78;100.00;50158.53;4973137;28;19937;-70
2022/07/08 02:43:56;;;;;;;;;;;;;;;-149.78;100.00;50164.41;4969865;28;20081;-70
2022/07/08 02:46:22;;;;;;;;;;;;;;;-149.78;100.00;50146.81;4954391;28;20350;-70
2022/07/08 02:48:48;;;;;;;;;;;;;;;-149.78;100.00;50154.63;4971964;28;19981;-70
2022/07/08 02:51:13;;;;;;;;;;;;;;;-149.78;100.00;50162.44;4970727;28;19929;-70
2022/07/08 02:53:39;;;;;;;;;;;;;;;-149.78;100.00;50174.19;4970359;28;20048;-70
2022/07/08 02:56:04;;;;;;;;;;;;;;;-149.78;100.00;50174.19;4971007;28;19966;-70
2022/07/08 02:58:30;;;;;;;;;;;;;;;-149.78;100.00;50178.09;4971174;28;19965;-70
2022/07/08 03:00:56;;;;;;;;;;;;;;;-149.78;100.00;50170.25;4975412;28;19957;-70
2022/07/08 03:03:22;;;;;;;;;;;;;;;-149.78;100.00;50178.09;4958347;28;19926;-70
2022/07/08 03:05:47;;;;;;;;;;;;;;;-149.78;100.00;50166.34;4953832;28;20349;-70
2022/07/08 03:08:14;;;;;;;;;;;;;;;-149.78;100.00;50170.25;4971099;28;19941;-70
2022/07/08 03:10:39;;;;;;;;;;;;;;;-149.78;100.00;50148.75;4971270;28;19930;-70
2022/07/08 03:13:05;;;;;;;;;;;;;;;-149.78;100.00;50197.66;4964540;28;19926;-70
2022/07/08 03:15:30;;;;;;;;;;;;;;;-149.78;100.00;50125.28;4971844;28;19932;-70
2022/07/08 03:17:56;;;;;;;;;;;;;;;-149.78;100.00;50209.38;4954923;28;19928;-70
2022/07/08 03:20:21;;;;;;;;;;;;;;;-149.78;100.00;50182.00;4973708;28;19944;-70
2022/07/08 03:22:47;;;;;;;;;;;;;;;-149.78;100.00;50189.81;4983188;28;19976;-70
2022/07/08 03:25:13;;;;;;;;;;;;;;;-149.78;100.00;50201.56;4984427;28;19926;-70
2022/07/08 03:27:38;;;;;;;;;;;;;;;-149.78;100.00;50201.56;4976474;28;19926;-70
2022/07/08 03:30:05;;;;;;;;;;;;;;;-149.78;100.00;50205.47;4983698;28;19987;-70
2022/07/08 03:32:30;;;;;;;;;;;;;;;-149.78;100.00;50197.66;4987076;28;19924;-71
2022/07/08 03:34:56;;;;;;;;;;;;;;;-149.78;100.00;50176.13;4983691;28;19925;-71
2022/07/08 03:37:21;;;;;;;;;;;;;;;-149.78;100.00;50197.66;4983535;28;20314;-70
2022/07/08 03:39:47;;;;;;;;;;;;;;;-149.78;100.00;50185.91;4982818;28;19926;-70
2022/07/08 03:42:14;;;;;;;;;;;;;;;-149.78;100.00;50201.56;4975343;28;19932;-70
2022/07/08 03:44:39;;;;;;;;;;;;;;;-149.78;100.00;50197.66;4961193;28;19930;-70
2022/07/08 03:47:05;;;;;;;;;;;;;;;-149.78;100.00;50217.19;4956693;28;19930;-70
2022/07/08 03:49:30;;;;;;;;;;;;;;;-149.78;100.00;50182.00;4974922;28;20664;-70
2022/07/08 03:51:56;;;;;;;;;;;;;;;-149.78;100.00;50174.19;4975069;28;19960;-71
2022/07/08 03:54:21;;;;;;;;;;;;;;;-149.78;100.00;50205.47;4974892;28;20024;-70
2022/07/08 03:56:47;;;;;;;;;;;;;;;-149.78;100.00;50185.91;4974562;28;19961;-70
2022/07/08 03:59:13;;;;;;;;;;;;;;;-149.78;100.00;50166.34;4955031;28;19997;-70
2022/07/08 04:01:43;;;;;;;;;;;;;;;-149.78;100.00;50201.56;4970450;28;19929;-70
2022/07/08 04:04:09;;;;;;;;;;;;;;;-149.78;100.00;50174.19;4973899;28;20804;-70
2022/07/08 04:06:35;;;;;;;;;;;;;;;-149.78;100.00;50178.09;4974339;28;19936;-70
2022/07/08 04:09:01;;;;;;;;;;;;;;;-149.78;100.00;50213.28;4973306;28;19929;-70
2022/07/08 04:11:32;;;;;;;;;;;;;;;-149.78;100.00;50219.16;4972300;28;20451;-70
2022/07/08 04:13:58;;;;;;;;;;;;;;;-149.78;100.00;50199.59;4972364;28;20004;-70
2022/07/08 04:16:23;;;;;;;;;;;;;;;-149.78;100.00;50197.66;4973200;28;19930;-70
2022/07/08 04:18:49;;;;;;;;;;;;;;;-149.78;100.00;50201.56;4970492;28;19926;-70
2022/07/08 04:21:14;;;;;;;;;;;;;;;-149.78;100.00;50209.38;4968341;28;20388;-70
2022/07/08 04:23:41;;;;;;;;;;;;;;;-149.78;100.00;50166.34;4973096;28;19930;-70
2022/07/08 04:26:06;;;;;;;;;;;;;;;-149.78;100.00;50201.56;4973267;28;20523;-70
2022/07/08 04:28:32;;;;;;;;;;;;;;;-149.78;100.00;50201.56;4967496;28;19932;-70
2022/07/08 04:30:57;;;;;;;;;;;;;;;-149.78;100.00;50232.84;4973604;28;20482;-70
2022/07/08 04:33:23;;;;;;;;;;;;;;;-149.78;100.00;50180.03;4977288;28;20373;-70
2022/07/08 04:35:49;;;;;;;;;;;;;;;-149.78;100.00;50170.25;4977524;28;19921;-70
2022/07/08 04:38:14;;;;;;;;;;;;;;;-149.78;100.00;50156.56;4978986;28;20300;-70
2022/07/08 04:40:40;;;;;;;;;;;;;;;-149.78;100.00;50197.66;4965565;28;20012;-70
2022/07/08 04:43:05;;;;;;;;;;;;;;;-149.78;100.00;50205.47;4972969;28;20284;-70
2022/07/08 04:45:32;;;;;;;;;;;;;;;-149.78;100.00;50176.13;4973638;28;19922;-70
2022/07/08 04:47:57;;;;;;;;;;;;;;;-149.78;100.00;50154.63;4970215;28;19940;-72
2022/07/08 04:50:23;;;;;;;;;;;;;;;-149.78;100.00;50170.25;4971080;28;19944;-70
2022/07/08 04:52:48;;;;;;;;;;;;;;;-149.78;100.00;50185.91;4969696;28;19949;-70
2022/07/08 04:55:29;;;;;;;;;;;;;;;-149.78;100.00;50203.50;4972388;28;19949;-70
2022/07/08 04:57:58;;;;;;;;;;;;;;;-149.78;100.00;50197.66;4974146;28;19930;-70
2022/07/08 05:00:24;;;;;;;;;;;;;;;-149.78;100.00;50178.09;4972382;28;19930;-70
2022/07/08 05:02:49;;;;;;;;;;;;;;;-149.78;100.00;50166.34;4973791;28;19945;-70
2022/07/08 05:05:15;;;;;;;;;;;;;;;-149.78;100.00;50158.53;4972969;28;19921;-70
2022/07/08 05:07:40;;;;;;;;;;;;;;;-149.78;100.00;50182.00;4964224;28;19918;-70
2022/07/08 05:10:06;;;;;;;;;;;;;;;-149.78;100.00;50174.19;4972258;28;19992;-70
2022/07/08 05:12:31;;;;;;;;;;;;;;;-149.78;100.00;50185.91;4976419;28;19940;-70
2022/07/08 05:14:57;;;;;;;;;;;;;;;-149.78;100.00;50189.81;4972278;28;20001;-70
2022/07/08 05:17:22;;;;;;;;;;;;;;;-149.78;100.00;50142.88;4971579;28;19930;-69
2022/07/08 05:19:47;;;;;;;;;;;;;;;-149.78;100.00;50185.91;4972545;28;19930;-69
2022/07/08 05:22:13;;;;;;;;;;;;;;;-149.78;100.00;50189.81;4978684;28;20542;-69
2022/07/08 05:24:38;;;;;;;;;;;;;;;-149.78;100.00;50148.75;4973226;28;19930;-69
2022/07/08 05:27:06;;;;;;;;;;;;;;;-149.78;100.00;50135.06;4976051;28;20024;-69
2022/07/08 05:29:32;;;;;;;;;;;;;;;-149.78;100.00;50172.22;4979122;28;19973;-70
2022/07/08 05:31:57;;;;;;;;;;;;;;;-149.78;100.00;50166.34;4978162;28;19917;-71
2022/07/08 05:34:23;;;;;;;;;;;;;;;-149.78;100.00;50158.53;4958299;28;20008;-71
2022/07/08 05:36:49;;;;;;;;;;;;;;;-149.78;100.00;50168.31;4978079;28;20699;-70
2022/07/08 05:39:14;;;;;;;;;;;;;;;-149.78;100.00;50166.34;4975940;28;19918;-70
2022/07/08 05:41:40;;;;;;;;;;;;;;;-149.78;100.00;50138.97;4972169;28;19937;-70
2022/07/08 05:44:06;;;;;;;;;;;;;;;-149.78;100.00;50178.09;4954323;28;19925;-70
2022/07/08 05:46:32;;;;;;;;;;;;;;;-149.78;100.00;50146.81;4960051;28;19929;-70
2022/07/08 05:48:57;;;;;;;;;;;;;;;-149.78;100.00;50123.34;4970762;28;20557;-69
2022/07/08 05:51:25;;;;;;;;;;;;;;;-149.78;100.00;50117.47;4968952;28;21598;-70
2022/07/08 05:53:52;;;;;;;;;;;;;;;-149.78;100.00;50146.81;4971381;28;19952;-69
2022/07/08 05:56:18;;;;;;;;;;;;;;;-149.78;100.00;50152.66;4970788;28;20680;-69
2022/07/08 05:58:44;;;;;;;;;;;;;;;-149.78;100.00;50170.25;4970992;28;20103;-70
2022/07/08 06:01:09;;;;;;;;;;;;;;;-149.78;100.00;50137.03;4970672;28;19922;-69
2022/07/08 06:03:36;;;;;;;;;;;;;;;-149.78;100.00;50144.84;4952334;28;19930;-70
2022/07/08 06:06:01;;;;;;;;;;;;;;;-149.78;100.00;50107.69;4966876;28;19926;-69
2022/07/08 06:08:27;;;;;;;;;;;;;;;-149.78;100.00;50107.69;4957346;28;20393;-70
2022/07/08 06:10:53;;;;;;;;;;;;;;;-149.78;100.00;50115.50;4975666;28;20024;-70
2022/07/08 06:13:18;;;;;;;;;;;;;;;-149.78;100.00;50088.13;4968973;28;19930;-70
2022/07/08 06:15:44;;;;;;;;;;;;;;;-149.78;100.00;50117.47;4953239;28;20411;-70
2022/07/08 06:18:11;;;;;;;;;;;;;;;-149.78;100.00;50146.81;4970723;28;19926;-70
2022/07/08 06:20:36;;;;;;;;;;;;;;;-149.78;100.00;50119.41;4973870;28;20381;-71
2022/07/08 06:23:02;;;;;;;;;;;;;;;-149.78;100.00;50094.00;4977040;28;19981;-72
2022/07/08 06:25:27;;;;;;;;;;;;;;;-149.78;100.00;50095.94;4977125;28;20008;-72
2022/07/08 06:27:53;;;;;;;;;;;;;;;-149.78;100.00;50107.69;4976499;28;19933;-72
2022/07/08 06:30:18;;;;;;;;;;;;;;;-149.78;100.00;50076.41;4979409;28;20080;-72
2022/07/08 06:32:44;;;;;;;;;;;;;;;-149.78;100.00;50041.19;4979180;28;20568;-71
2022/07/08 06:35:10;;;;;;;;;;;;;;;-149.78;100.00;50045.09;4981741;28;20037;-73
2022/07/08 06:37:36;;;;;;;;;;;;;;;-149.78;100.00;50049.03;4980882;28;19930;-73
2022/07/08 06:40:02;;;;;;;;;;;;;;;-149.78;100.00;50025.56;4980616;28;20297;-73
2022/07/08 06:42:27;;;;;;;;;;;;;;;-149.78;100.00;50029.47;4983794;28;20072;-73
2022/07/08 06:44:53;;;;;;;;;;;;;;;-149.78;100.00;50013.81;4980600;28;20369;-74
2022/07/08 06:47:18;;;;;;;;;;;;;;;-149.78;95.57;49998.19;4979549;28;19929;-72
2022/07/08 06:49:43;;;;;;;;;;;;;;;-149.78;90.78;50021.63;4981015;28;20452;-73
2022/07/08 06:52:09;;;;;;;;;;;;;;;-149.78;81.10;49962.97;4963991;28;20053;-73
2022/07/08 06:54:37;;;;;;;;;;;;;;;-149.78;75.15;49986.44;4965178;28;20364;-73
2022/07/08 06:57:09;;;;;;;;;;;;;;;-149.78;70.03;49998.19;4982127;28;19926;-74
2022/07/08 06:59:35;;;;;;;;;;;;;;;-149.78;67.21;49974.72;4982733;28;19972;-73
2022/07/08 07:02:01;;;;;;;;;;;;;;;-149.78;65.17;49939.50;4979954;28;19975;-72
2022/07/08 07:04:27;;;;;;;;;;;;;;;-149.78;61.85;49896.50;4982565;28;20751;-72
2022/07/08 07:06:52;;;;;;;;;;;;;;;-149.78;60.71;49939.50;4981027;28;19918;-72
2022/07/08 07:09:18;;;;;;;;;;;;;;;-149.78;55.29;49935.59;4979492;28;20254;-72
2022/07/08 07:11:43;;;;;;;;;;;;;;;-149.78;53.23;49861.28;4978227;28;21270;-72
2022/07/08 07:14:08;;;;;;;;;;;;;;;-149.78;50.32;49863.25;4982861;28;19941;-72
2022/07/08 07:16:35;;;;;;;;;;;;;;;-149.78;50.92;49878.88;4981902;28;19925;-72
2022/07/08 07:19:01;;;;;;;;;;;;;;;-149.78;48.42;49837.81;4977304;28;20012;-72
2022/07/08 07:21:26;;;;;;;;;;;;;;;-149.78;48.73;49880.84;4966189;28;19934;-71
2022/07/08 07:23:52;;;;;;;;;;;;;;;-149.78;44.98;49814.34;4963393;28;20281;-72
2022/07/08 07:26:18;;;;;;;;;;;;;;;-149.78;43.79;49786.97;4978378;28;19929;-71
2022/07/08 07:28:43;;;;;;;;;;;;;;;-149.78;43.48;49810.44;4980422;28;20009;-72
2022/07/08 07:31:09;;;;;;;;;;;;;;;-149.78;42.85;49824.13;4981075;28;20032;-70
2022/07/08 07:33:34;;;;;;;;;;;;;;;-149.78;43.10;49812.41;4981446;28;19925;-70
2022/07/08 07:36:00;;;;;;;;;;;;;;;-149.78;42.63;49802.63;4977209;28;19929;-70
2022/07/08 07:38:27;;;;;;;;;;;;;;;-149.78;40.04;49763.53;4981172;28;20365;-70
2022/07/08 07:40:52;;;;;;;;;;;;;;;-149.78;38.89;49734.19;4964265;28;19930;-70
2022/07/08 07:43:18;;;;;;;;;;;;;;;-149.78;38.28;49716.59;4980820;28;20016;-70
2022/07/08 07:45:43;;;;;;;;;;;;;;;-149.78;37.64;49708.75;4980783;28;20308;-70
2022/07/08 07:48:09;;;;;;;;;;;;;;;-149.78;35.92;49720.50;4981589;28;19926;-70
2022/07/08 07:50:34;;;;;;;;;;;;;;;-149.78;37.42;49732.22;4963803;28;20379;-70
2022/07/08 08:41:44;;;;;;;4.32;3.05;;;;;;;-149.78;33.49;49642.28;5112019;27;20921;-68
2022/07/08 08:44:10;;;;;;;4.22;2.70;;;;;;;-149.78;34.04;49675.53;5114012;27;20043;-68
2022/07/08 08:46:36;;;;;;;2.90;2.58;;;;;;;-149.78;35.87;49704.84;5111432;27;20131;-69
2022/07/08 08:49:02;;;;;;;5.25;2.70;;;;;;;-149.78;34.82;49652.06;5115055;27;20082;-69
2022/07/08 08:51:34;;;;;;;2.85;2.50;;;;;;;-149.78;34.30;49689.22;5101615;27;21505;-68
2022/07/08 08:54:02;;;;;;;3.20;2.33;;;;;;;-149.78;34.16;49657.94;5109214;27;20985;-69
2022/07/08 08:56:28;;;;;;;5.07;2.58;;;;;;;-149.78;34.03;49665.75;5115746;27;20502;-69
2022/07/08 08:58:54;;;;;;;4.28;2.90;;;;;;;-149.78;33.80;49646.19;5116307;27;20043;-68
2022/07/08 09:01:21;;;;;;;4.45;2.38;;;;;;;-149.78;34.45;49677.47;5116850;27;20031;-69
2022/07/08 09:03:47;;;;;;;2.63;2.42;;;;;;;-149.78;34.26;49654.00;5122532;27;20391;-68
2022/07/08 09:06:13;;;;;;;5.20;2.67;;;;;;;-149.78;34.82;49700.94;5108379;28;20036;-68
2022/07/08 09:08:40;;;;;;;3.83;2.47;;;;;;;-149.78;33.78;49697.03;5105493;28;20078;-68
2022/07/08 09:11:06;;;;;;;3.08;2.30;;;;;;;-149.78;32.90;49655.97;5090761;28;20036;-68
2022/07/08 09:13:32;;;;;;;2.08;1.90;;;;;;;-149.78;33.44;49687.25;5099128;28;20032;-68
2022/07/08 09:15:59;;;;;;;2.30;2.10;;;;;;;-149.78;33.36;49644.25;5103338;28;20039;-68
2022/07/08 09:18:34;;;;;;;2.20;2.00;;;;;;;-149.78;33.80;49681.38;5101206;28;20035;-68
2022/07/08 09:21:01;;;;;;;2.53;2.10;;;;;;;-149.78;33.10;49685.31;5103185;28;20110;-68
2022/07/08 09:23:32;;;;;;;1.88;1.50;;;;;;;-149.78;32.26;49591.44;5104242;28;20377;-68
2022/07/08 09:26:00;;;;;;;1.80;1.70;;;;;;;-149.78;32.05;49659.88;5116691;27;20043;-68
2022/07/08 09:28:41;;;;;;;1.95;1.75;;;;;;;-149.78;32.60;49654.00;5117233;27;20031;-68
2022/07/08 09:31:14;;;;;;;1.77;1.60;;;;;;;-149.78;32.47;49657.94;5118087;27;20031;-68
2022/07/08 09:33:42;;;;;;;1.55;1.45;;;;;;;-149.78;32.84;49669.66;5116459;27;20072;-67
2022/07/08 09:36:09;;;;;;;1.70;1.60;;;;;;;-149.78;32.66;49646.19;5116851;27;20038;-68
2022/07/08 09:38:37;;;;;;;1.63;1.52;;;;;;;-149.78;32.87;49661.84;5097303;27;20036;-68
2022/07/08 09:41:09;;;;;;;1.70;1.60;;;;;;;-149.78;32.72;49642.28;5090218;28;20047;-68
2022/07/08 09:43:43;;;;;;;1.70;1.60;;;;;;;-149.78;32.99;49661.84;5083571;28;20131;-68
2022/07/08 09:46:09;;;;;;;3.78;1.60;;;;;;;-149.78;32.92;49657.94;5080661;28;20517;-68
2022/07/08 09:48:35;;;;;;;2.47;2.03;;;;;;;-149.78;32.76;49648.16;5082223;28;20129;-68
2022/07/08 09:51:07;;;;;;;2.58;1.92;;;;;;;-149.78;32.34;49650.09;5084808;28;20111;-68
2022/07/08 09:53:34;;;;;;;1.60;1.50;;;;;;;-149.78;32.38;49655.97;5075037;28;20029;-68
2022/07/08 09:55:59;;;;;;;3.20;1.40;;;;;;;-149.78;32.66;49648.16;5077644;28;20058;-68
2022/07/08 09:58:28;;;;;;;1.92;1.60;;;;;;;-149.78;32.64;49663.78;5078224;28;20129;-68
2022/07/08 10:00:55;;;;;;;2.55;2.10;;;;;;;-149.78;32.47;49665.75;5086601;28;20066;-67
2022/07/08 10:03:21;;;;;;;2.70;1.88;;;;;;;-149.78;34.09;49683.34;5076619;28;20067;-68
2022/07/08 10:05:48;;;;;;;2.10;2.00;;;;;;;-149.78;35.71;49710.72;5082843;28;20028;-74
2022/07/08 10:08:15;;;;;;;2.05;1.90;;;;;;;-149.78;35.45;49728.31;5080216;28;20055;-69
2022/07/08 10:10:42;;;;;;;4.47;2.10;;;;;;;-149.78;35.11;49728.31;5077967;28;20024;-69
2022/07/08 10:13:09;;;;;;;5.35;2.08;;;;;;;-149.78;35.15;49720.50;5083515;28;20499;-69
2022/07/08 10:15:36;;;;;;;3.45;1.80;;;;;;;-149.78;37.40;49755.69;5084823;28;20028;-69
2022/07/08 10:18:05;;;;;;;4.85;2.60;;;;;;;-149.78;37.57;49775.25;5086073;28;20046;-69
2022/07/08 10:20:35;;;;;;;3.58;2.10;;;;;;;-149.78;38.23;49804.59;5088535;28;20461;-68
2022/07/08 10:23:14;;;;;;;5.15;2.38;;;;;;;-149.78;39.98;49775.25;5079000;28;20373;-68
2022/07/08 10:25:40;;;;;;;4.07;2.40;;;;;;;-149.78;41.06;49810.44;5086148;28;20024;-69
2022/07/08 10:28:10;;;;;;;4.53;2.72;;;;;;;-149.78;40.71;49790.91;5077046;28;20059;-68
2022/07/08 10:30:52;;;;;;;2.70;2.20;;;;;;;-149.78;40.60;49779.16;5064214;28;20491;-69
2022/07/08 10:33:25;;;;;;;3.92;2.53;;;;;;;-149.78;40.00;49779.16;5067006;28;20044;-69
2022/07/08 10:36:00;;;;;;;2.92;2.42;;;;;;;-149.78;39.60;49755.69;5065674;28;20037;-68
2022/07/08 10:38:30;;;;;;;2.20;2.00;;;;;;;-149.78;38.07;49740.06;5060819;28;20040;-69
2022/07/08 10:41:00;;;;;;;2.85;1.92;;;;;;;-149.78;39.53;49786.97;5070508;28;20469;-70
2022/07/08 10:43:27;;;;;;;2.28;2.03;;;;;;;-149.78;38.34;49759.59;5061250;28;20369;-70
2022/07/08 10:45:59;;;;;;;2.80;1.88;;;;;;;-149.78;39.22;49743.97;5072056;28;20033;-69
2022/07/08 10:48:28;;;;;;;2.85;2.10;;;;;;;-149.78;39.39;49790.91;5065423;28;20139;-69
2022/07/08 10:50:55;;;;;;;3.10;2.28;;;;;;;-149.78;39.52;49743.97;5079120;28;20039;-69
2022/07/08 10:53:20;;;;;;;3.20;2.30;;;;;;;-149.78;38.56;49779.16;5076666;28;20630;-70
2022/07/08 10:55:47;;;;;;;3.35;2.58;;;;;;;-149.78;39.27;49794.81;5080447;28;20051;-69
2022/07/08 10:58:12;;;;;;;3.60;2.45;;;;;;;-149.78;39.58;49794.81;5078966;28;20044;-69
2022/07/08 11:00:39;;;;;;;4.13;2.70;;;;;;;-149.78;41.56;49786.97;5081471;28;20020;-69
2022/07/08 11:03:08;;;;;;;3.33;2.25;;;;;;;-149.78;42.08;49814.34;5059301;28;20035;-69
2022/07/08 11:05:42;;;;;;;5.80;2.67;;;;;;;-149.78;42.63;49837.81;5080855;28;20024;-69
2022/07/08 11:08:19;;;;;;;5.80;2.25;;;;;;;-149.78;39.66;49767.44;5081581;28;20020;-69
2022/07/08 11:10:46;;;;;;;2.42;2.17;;;;;;;-149.78;39.60;49794.81;5081860;28;20056;-69
2022/07/08 11:13:12;;;;;;;3.58;2.40;;;;;;;-149.78;39.82;49798.72;5074511;28;20545;-70
2022/07/08 11:15:38;;;;;;;3.60;2.20;;;;;;;-149.78;40.17;49786.97;5079516;28;20032;-70
2022/07/08 11:18:04;;;;;;;2.58;2.35;;;;;;;-149.78;39.54;49788.94;5073737;28;20043;-71
2022/07/08 11:20:31;;;;;;;2.53;2.30;;;;;;;-149.78;41.32;49820.22;5077907;28;20651;-72
2022/07/08 11:22:57;;;;;;;4.05;2.42;;;;;;;-149.78;42.87;49830.00;5079394;28;20501;-68
2022/07/08 11:25:23;;;;;;;2.10;1.90;;;;;;;-149.78;41.76;49847.59;5074546;28;20036;-69
2022/07/08 11:27:48;;;;;;;2.38;2.17;;;;;;;-149.78;41.47;49837.81;5074591;28;20025;-70
2022/07/08 11:30:16;;;;;;;4.28;2.10;;;;;;;-149.78;42.01;49814.34;5064403;28;20543;-70
2022/07/08 11:32:46;;;;;;;3.65;2.20;;;;;;;-149.78;40.84;49786.97;5058567;28;20040;-71
2022/07/08 11:35:13;;;;;;;2.65;2.00;;;;;;;-149.78;40.68;49812.41;5060099;28;20120;-70
2022/07/08 11:37:43;;;;;;;4.13;2.33;;;;;;;-149.78;41.56;49794.81;5053821;28;20032;-71
2022/07/08 11:40:11;;;;;;;2.58;2.13;;;;;;;-149.78;40.99;49806.53;5051739;28;20067;-70
2022/07/08 11:42:38;;;;;;;3.42;1.98;;;;;;;-149.78;40.67;49812.41;5059882;28;20384;-70
2022/07/08 11:45:06;;;;;;;2.45;2.17;;;;;;;-149.78;40.92;49802.63;5060198;28;20048;-70
2022/07/08 11:47:32;;;;;;;2.90;2.10;;;;;;;-149.78;39.35;49810.44;5069395;28;20445;-71
2022/07/08 11:49:58;;;;;;;2.50;2.05;;;;;;;-149.78;40.20;49841.72;5072869;28;20032;-70
2022/07/08 11:52:27;;;;;;;2.55;2.25;;;;;;;-149.78;39.18;49837.81;5075748;28;20047;-71
2022/07/08 11:54:53;;;;;;;2.78;2.20;;;;;;;-149.78;38.44;49831.97;5078406;28;20036;-70
2022/07/08 11:57:22;;;;;;;4.03;2.30;;;;;;;-149.78;39.62;49796.75;5079372;28;20032;-71
2022/07/08 11:59:49;;;;;;;4.07;2.08;;;;;;;-149.78;40.33;49802.63;5076814;28;20020;-70
2022/07/08 12:02:19;;;;;;;5.03;1.92;;;;;;;-149.78;39.46;49814.34;5076282;28;20107;-70
2022/07/08 12:04:46;;;;;;;2.38;2.17;;;;;;;-149.78;39.51;49810.44;5078629;28;20728;-70
2022/07/08 12:07:25;;;;;;;2.85;1.95;;;;;;;-149.78;40.10;49837.81;5075062;28;20024;-71
2022/07/08 12:10:03;;;;;;;3.08;2.00;;;;;;;-149.78;37.93;49786.97;5079954;28;20461;-70
2022/07/08 12:12:30;;;;;;;4.80;2.25;;;;;;;-149.78;39.98;49794.81;5078385;28;20354;-71
2022/07/08 12:14:57;;;;;;;3.33;2.05;;;;;;;-149.78;37.90;49798.72;5080224;28;20024;-71
2022/07/08 12:17:24;;;;;;;3.35;2.40;;;;;;;-149.78;39.11;49796.75;5080286;28;20066;-70
2022/07/08 12:19:52;;;;;;;2.70;2.20;;;;;;;-149.78;39.21;49808.50;5080224;28;20051;-70
2022/07/08 12:22:44;;;;;;;3.90;2.03;;;;;;;-149.78;38.98;49837.81;5080851;28;20032;-70
2022/07/08 12:25:12;;;;;;;2.10;1.85;;;;;;;-149.78;39.84;49837.81;5078090;28;20028;-71
2022/07/08 12:27:38;;;;;;;2.22;2.03;;;;;;;-149.78;40.14;49806.53;5076613;28;20107;-70
2022/07/08 12:30:05;;;;;;;3.00;2.25;;;;;;;-149.78;40.01;49790.91;5065674;28;20119;-70
2022/07/08 12:32:42;;;;;;;3.45;2.10;;;;;;;-149.78;40.19;49849.56;5062940;28;20365;-70
2022/07/08 12:35:09;;;;;;;2.88;2.17;;;;;;;-149.78;39.59;49806.53;5058597;28;20116;-70
2022/07/08 12:37:36;;;;;;;4.95;2.25;;;;;;;-149.78;40.40;49806.53;5066749;28;20427;-70
2022/07/08 12:40:14;;;;;;;3.30;2.38;;;;;;;-149.78;40.60;49794.81;5053435;28;20041;-70
2022/07/08 12:42:40;;;;;;;3.95;2.40;;;;;;;-149.78;39.91;49779.16;5065079;28;20083;-70